This is the latest recevied weather packets stored in our database for station/object Riedlingn. If no packets are shown the sender has not sent any weather packets the latest 10 day(s).
| Time | Temp. | Humidity | Pressure | Rain* | Wind** | Luminosity | Snow |
|---|---|---|---|---|---|---|---|
| 1787839332 | 30.56° C | 49% | 1015.2 hPa | 0 mm | - | - | - |
| 1787837531 | 30.56° C | 47% | 1015.4 hPa | 0 mm | - | - | - |
| 1787835730 | 30.56° C | 47% | 1015.7 hPa | 0 mm | - | - | - |
| 1787833930 | 30° C | 48% | 1016.1 hPa | 0 mm | - | - | - |
| 1787832131 | 30° C | 51% | 1016.3 hPa | 0 mm | - | - | - |
| 1787830330 | 29.44° C | 55% | 1016.8 hPa | 0 mm | - | - | - |
| 1787828530 | 27.78° C | 58% | 1016.8 hPa | 0 mm | - | - | - |
| 1787826730 | 27.22° C | 60% | 1017.3 hPa | 0 mm | - | - | - |
| 1787824931 | 25° C | 65% | 1017.6 hPa | 0 mm | - | - | - |
| 1787823130 | 23.89° C | 73% | 1018 hPa | 0 mm | - | - | - |
| 1787821330 | 22.78° C | 75% | 1018.2 hPa | 0 mm | - | - | - |
| 1787819530 | 21.67° C | 78% | 1018.2 hPa | 0 mm | - | - | - |
| 1787817730 | 20.56° C | 82% | 1018.2 hPa | 0 mm | - | - | - |
| 1787815930 | 19.44° C | 84% | 1018.2 hPa | 0 mm | - | - | - |
| 1787814130 | 18.89° C | 86% | 1018 hPa | 0 mm | - | - | - |
| 1787812329 | 18.33° C | 87% | 1018.3 hPa | 0 mm | - | - | - |
| 1787810530 | 17.78° C | 89% | 1017.9 hPa | 0 mm | - | - | - |
| 1787808730 | 16.67° C | 90% | 1017.7 hPa | 0 mm | - | - | - |
| 1787806930 | 16.67° C | 89% | 1017.5 hPa | 0 mm | - | - | - |
| 1787805129 | 17.22° C | 89% | 1017.6 hPa | 0 mm | - | - | - |
| 1787803330 | 17.22° C | 89% | 1017.8 hPa | 0 mm | - | - | - |
| 1787801529 | 17.22° C | 89% | 1017.6 hPa | 0 mm | - | - | - |
| 1787799730 | 17.22° C | 89% | 1017.5 hPa | 0 mm | - | - | - |
| 1787797929 | 17.22° C | 88% | 1017.8 hPa | 0 mm | - | - | - |
| 1787796130 | 17.78° C | 88% | 1017.9 hPa | 0 mm | - | - | - |
* Rain since midnight (hover to see other rain measurements)
** Current wind speed in m/s (hover to see current wind gust speed)